Alviso, California
Current Conditions -  °F | °C
As of 2:56 AM on Wednesday 22 Oct 2014 (Local Time) from KNUQ Reporting Station
Clear Clear  
Wind Chill: 54°   Ceiling: Unl
Heat Index: 54°   Visibility: 10mi
Dew Point: 48°   Wind: 3mph
Humidity: 80%   Direction: 140°SE
Pressure: 30.06"   Gusts: NA
Location:  37.43°N, 121.97°W
Report Text: KNUQ 220956Z AUTO 14003KT 10SM CLR 12/09 A3006 RMK AO2 SLP182 T01220089 TSNO
Loading
Personal Weather Stations






























Interactive Weather Map New forecast layout! Learn more

10-Day Weather Forecast

Advertisements
Track Severe Weather on mobile